Decoded Metar for KGSH (GOSHEN in IN, USA) (IATA:GSH) | Meteo·Mobile Aviation Weather
aviador You're here:

KGSH Decoded Metar

GOSHEN in IN, USA
Report Time2018-11-12 22:53:00
UTC Time2018-11-12 23:11:18
Flight Rules vfr VFR
Wind330° at 05 kt
W.Decomp.*RWY 27: 2.2 kt HW 4.5 kt RCW
RWY 05: 1.2 kt HW 4.9 kt LCW
W.Rank330° ranks 22
Current wind is below 330° avg. (9.1)
Visibility9999 m
Phenomena:N/A
Clouds:Few 050 Hf
Overcast 070 Hf
Expected CloudBase > 1,200 ft AGL from Temp-Dew spread
Ceiling7,000 ft
Temp02°C (ISA -11)
Dew Point-1°C (81% RH)
AAT-1.9°C
QNH1024 hPa
Density Alt-843 ft
Elevation827 ft
Report Wrong Elevation
Raw Report
KGSH 122253Z AUTO 33005KT 10SM FEW050 OVC070 02/M01 A3024 RMK AO2
SLP248 T00221011 $=

Extra information for KGSH:More info

Metar Taf Metar & Taf Last 4 Metars F.Rules Stats Wind Profile Meteogram Temp Stats Airport Information Weather charts Add Link Nearby VenuesMetar ALERT Operation Metar Decoded Social comments

AIRNAV info for KGSH